sensor_id;sensor_type;location;lat;lon;timestamp;P1;durP1;ratioP1;P2;durP2;ratioP2
15553;SDS011;7878;44.632;10.942;2022-11-23T00:02:25;8.90;;;7.20;;
15553;SDS011;7878;44.632;10.942;2022-11-23T00:04:51;11.17;;;7.70;;
15553;SDS011;7878;44.632;10.942;2022-11-23T00:07:16;10.17;;;6.87;;
15553;SDS011;7878;44.632;10.942;2022-11-23T00:09:42;8.20;;;6.97;;
15553;SDS011;7878;44.632;10.942;2022-11-23T00:12:07;9.97;;;7.50;;
15553;SDS011;7878;44.632;10.942;2022-11-23T00:14:33;8.47;;;6.63;;
15553;SDS011;7878;44.632;10.942;2022-11-23T00:16:59;10.20;;;7.13;;
15553;SDS011;7878;44.632;10.942;2022-11-23T00:19:25;8.97;;;7.50;;
15553;SDS011;7878;44.632;10.942;2022-11-23T00:21:50;7.87;;;6.90;;
15553;SDS011;7878;44.632;10.942;2022-11-23T00:24:16;9.20;;;6.97;;
15553;SDS011;7878;44.632;10.942;2022-11-23T00:26:42;7.63;;;6.83;;
15553;SDS011;7878;44.632;10.942;2022-11-23T00:29:07;11.43;;;10.20;;
15553;SDS011;7878;44.632;10.942;2022-11-23T00:31:33;8.90;;;7.07;;
15553;SDS011;7878;44.632;10.942;2022-11-23T00:33:59;9.97;;;7.33;;
15553;SDS011;7878;44.632;10.942;2022-11-23T00:36:25;8.80;;;6.50;;
15553;SDS011;7878;44.632;10.942;2022-11-23T00:38:51;9.20;;;6.47;;
15553;SDS011;7878;44.632;10.942;2022-11-23T00:41:22;7.77;;;6.27;;
15553;SDS011;7878;44.632;10.942;2022-11-23T00:43:50;8.53;;;6.80;;
15553;SDS011;7878;44.632;10.942;2022-11-23T00:46:23;7.60;;;6.40;;
15553;SDS011;7878;44.632;10.942;2022-11-23T00:48:50;9.07;;;6.70;;
15553;SDS011;7878;44.632;10.942;2022-11-23T00:51:19;8.03;;;5.90;;
15553;SDS011;7878;44.632;10.942;2022-11-23T00:53:48;7.03;;;5.97;;
15553;SDS011;7878;44.632;10.942;2022-11-23T00:56:14;6.80;;;5.73;;
15553;SDS011;7878;44.632;10.942;2022-11-23T00:58:40;7.03;;;5.23;;
15553;SDS011;7878;44.632;10.942;2022-11-23T01:01:07;7.40;;;5.43;;
15553;SDS011;7878;44.632;10.942;2022-11-23T01:03:36;8.60;;;5.90;;
15553;SDS011;7878;44.632;10.942;2022-11-23T01:06:07;12.03;;;6.63;;
15553;SDS011;7878;44.632;10.942;2022-11-23T01:08:38;8.53;;;6.30;;
15553;SDS011;7878;44.632;10.942;2022-11-23T01:11:05;7.53;;;6.27;;
15553;SDS011;7878;44.632;10.942;2022-11-23T01:13:33;9.40;;;6.50;;
15553;SDS011;7878;44.632;10.942;2022-11-23T01:15:59;7.70;;;6.53;;
15553;SDS011;7878;44.632;10.942;2022-11-23T01:18:25;10.63;;;6.80;;
15553;SDS011;7878;44.632;10.942;2022-11-23T01:20:51;8.83;;;6.90;;
15553;SDS011;7878;44.632;10.942;2022-11-23T01:23:17;7.70;;;6.50;;
15553;SDS011;7878;44.632;10.942;2022-11-23T01:25:42;11.23;;;7.27;;
15553;SDS011;7878;44.632;10.942;2022-11-23T01:28:08;11.23;;;6.50;;
15553;SDS011;7878;44.632;10.942;2022-11-23T01:30:34;12.53;;;7.63;;
15553;SDS011;7878;44.632;10.942;2022-11-23T01:33:00;8.07;;;6.83;;
15553;SDS011;7878;44.632;10.942;2022-11-23T01:35:29;11.60;;;7.30;;
15553;SDS011;7878;44.632;10.942;2022-11-23T01:37:55;7.33;;;6.23;;
15553;SDS011;7878;44.632;10.942;2022-11-23T01:40:20;10.97;;;7.00;;
15553;SDS011;7878;44.632;10.942;2022-11-23T01:42:48;8.00;;;6.17;;
15553;SDS011;7878;44.632;10.942;2022-11-23T01:48:04;8.80;;;6.97;;
15553;SDS011;7878;44.632;10.942;2022-11-23T01:50:47;10.17;;;6.80;;
15553;SDS011;7878;44.632;10.942;2022-11-23T01:53:15;7.07;;;5.70;;
15553;SDS011;7878;44.632;10.942;2022-11-23T01:55:41;8.93;;;6.17;;
15553;SDS011;7878;44.632;10.942;2022-11-23T01:58:10;7.20;;;5.60;;
15553;SDS011;7878;44.632;10.942;2022-11-23T02:00:38;6.80;;;5.60;;
15553;SDS011;7878;44.632;10.942;2022-11-23T02:03:04;7.30;;;5.43;;
15553;SDS011;7878;44.632;10.942;2022-11-23T02:05:32;7.87;;;6.00;;
15553;SDS011;7878;44.632;10.942;2022-11-23T02:08:04;9.47;;;6.03;;
15553;SDS011;7878;44.632;10.942;2022-11-23T02:10:31;7.07;;;5.70;;
15553;SDS011;7878;44.632;10.942;2022-11-23T02:13:00;7.13;;;6.07;;
15553;SDS011;7878;44.632;10.942;2022-11-23T02:15:31;10.03;;;6.60;;
15553;SDS011;7878;44.632;10.942;2022-11-23T02:17:58;6.33;;;5.70;;
15553;SDS011;7878;44.632;10.942;2022-11-23T02:20:26;8.80;;;6.07;;
15553;SDS011;7878;44.632;10.942;2022-11-23T02:28:05;7.67;;;5.87;;
15553;SDS011;7878;44.632;10.942;2022-11-23T02:30:32;7.30;;;5.80;;
15553;SDS011;7878;44.632;10.942;2022-11-23T02:33:00;9.00;;;6.53;;
15553;SDS011;7878;44.632;10.942;2022-11-23T02:35:30;7.53;;;5.67;;
15553;SDS011;7878;44.632;10.942;2022-11-23T02:37:56;9.73;;;6.17;;
15553;SDS011;7878;44.632;10.942;2022-11-23T02:40:33;8.40;;;5.87;;
15553;SDS011;7878;44.632;10.942;2022-11-23T02:43:00;6.93;;;5.77;;
15553;SDS011;7878;44.632;10.942;2022-11-23T02:47:54;8.47;;;6.60;;
15553;SDS011;7878;44.632;10.942;2022-11-23T02:50:20;8.40;;;5.97;;
15553;SDS011;7878;44.632;10.942;2022-11-23T02:52:46;7.40;;;6.33;;
15553;SDS011;7878;44.632;10.942;2022-11-23T02:55:12;7.73;;;6.17;;
15553;SDS011;7878;44.632;10.942;2022-11-23T02:57:37;11.20;;;6.27;;
15553;SDS011;7878;44.632;10.942;2022-11-23T03:00:03;9.97;;;6.13;;
15553;SDS011;7878;44.632;10.942;2022-11-23T03:02:29;10.00;;;5.83;;
15553;SDS011;7878;44.632;10.942;2022-11-23T03:04:55;7.40;;;5.93;;
15553;SDS011;7878;44.632;10.942;2022-11-23T03:07:21;9.33;;;5.40;;
15553;SDS011;7878;44.632;10.942;2022-11-23T03:09:46;6.23;;;5.23;;
15553;SDS011;7878;44.632;10.942;2022-11-23T03:12:12;9.47;;;6.33;;
15553;SDS011;7878;44.632;10.942;2022-11-23T03:14:38;5.93;;;4.80;;
15553;SDS011;7878;44.632;10.942;2022-11-23T03:17:03;7.67;;;4.90;;
15553;SDS011;7878;44.632;10.942;2022-11-23T03:19:29;6.73;;;5.13;;
15553;SDS011;7878;44.632;10.942;2022-11-23T03:21:54;6.60;;;4.87;;
15553;SDS011;7878;44.632;10.942;2022-11-23T03:24:20;7.43;;;4.93;;
15553;SDS011;7878;44.632;10.942;2022-11-23T03:26:46;7.63;;;5.33;;
15553;SDS011;7878;44.632;10.942;2022-11-23T03:29:11;8.57;;;4.47;;
15553;SDS011;7878;44.632;10.942;2022-11-23T03:31:37;8.37;;;4.43;;
15553;SDS011;7878;44.632;10.942;2022-11-23T03:34:03;5.43;;;3.73;;
15553;SDS011;7878;44.632;10.942;2022-11-23T03:36:28;6.10;;;4.00;;
15553;SDS011;7878;44.632;10.942;2022-11-23T03:38:54;6.30;;;3.77;;
15553;SDS011;7878;44.632;10.942;2022-11-23T03:41:20;4.83;;;3.60;;
15553;SDS011;7878;44.632;10.942;2022-11-23T03:43:45;7.00;;;3.80;;
15553;SDS011;7878;44.632;10.942;2022-11-23T03:46:11;4.47;;;3.87;;
15553;SDS011;7878;44.632;10.942;2022-11-23T03:48:36;4.67;;;3.77;;
15553;SDS011;7878;44.632;10.942;2022-11-23T03:51:02;4.63;;;4.03;;
15553;SDS011;7878;44.632;10.942;2022-11-23T03:53:28;8.17;;;4.30;;
15553;SDS011;7878;44.632;10.942;2022-11-23T03:55:53;5.80;;;4.00;;
15553;SDS011;7878;44.632;10.942;2022-11-23T03:58:21;11.33;;;4.03;;
15553;SDS011;7878;44.632;10.942;2022-11-23T04:00:47;6.83;;;5.00;;
15553;SDS011;7878;44.632;10.942;2022-11-23T04:03:12;14.40;;;7.90;;
15553;SDS011;7878;44.632;10.942;2022-11-23T04:05:38;7.50;;;5.87;;
15553;SDS011;7878;44.632;10.942;2022-11-23T04:08:04;6.57;;;5.50;;
15553;SDS011;7878;44.632;10.942;2022-11-23T04:10:29;5.20;;;4.50;;
15553;SDS011;7878;44.632;10.942;2022-11-23T04:12:55;7.23;;;4.20;;
15553;SDS011;7878;44.632;10.942;2022-11-23T04:15:21;5.77;;;4.30;;
15553;SDS011;7878;44.632;10.942;2022-11-23T04:17:46;5.83;;;4.03;;
15553;SDS011;7878;44.632;10.942;2022-11-23T04:20:12;6.57;;;4.30;;
15553;SDS011;7878;44.632;10.942;2022-11-23T04:22:38;8.50;;;4.70;;
15553;SDS011;7878;44.632;10.942;2022-11-23T04:25:04;5.10;;;3.97;;
15553;SDS011;7878;44.632;10.942;2022-11-23T04:27:30;5.80;;;4.53;;
15553;SDS011;7878;44.632;10.942;2022-11-23T04:29:56;6.80;;;4.40;;
15553;SDS011;7878;44.632;10.942;2022-11-23T04:32:21;11.23;;;4.13;;
15553;SDS011;7878;44.632;10.942;2022-11-23T04:34:47;5.23;;;3.60;;
15553;SDS011;7878;44.632;10.942;2022-11-23T04:37:12;3.80;;;3.37;;
15553;SDS011;7878;44.632;10.942;2022-11-23T04:39:38;4.90;;;4.40;;
15553;SDS011;7878;44.632;10.942;2022-11-23T04:42:04;6.13;;;4.17;;
15553;SDS011;7878;44.632;10.942;2022-11-23T04:44:29;6.83;;;4.30;;
15553;SDS011;7878;44.632;10.942;2022-11-23T04:46:55;5.30;;;4.23;;
15553;SDS011;7878;44.632;10.942;2022-11-23T04:49:20;6.90;;;4.27;;
15553;SDS011;7878;44.632;10.942;2022-11-23T04:51:46;4.27;;;3.87;;
15553;SDS011;7878;44.632;10.942;2022-11-23T04:54:12;4.83;;;3.70;;
15553;SDS011;7878;44.632;10.942;2022-11-23T04:56:37;4.83;;;3.77;;
15553;SDS011;7878;44.632;10.942;2022-11-23T04:59:03;5.87;;;3.63;;
15553;SDS011;7878;44.632;10.942;2022-11-23T05:01:29;4.00;;;3.60;;
15553;SDS011;7878;44.632;10.942;2022-11-23T05:03:54;3.60;;;3.30;;
15553;SDS011;7878;44.632;10.942;2022-11-23T05:06:20;6.03;;;4.13;;
15553;SDS011;7878;44.632;10.942;2022-11-23T05:08:46;5.73;;;3.60;;
15553;SDS011;7878;44.632;10.942;2022-11-23T05:11:11;6.87;;;3.83;;
15553;SDS011;7878;44.632;10.942;2022-11-23T05:13:37;5.13;;;3.00;;
15553;SDS011;7878;44.632;10.942;2022-11-23T05:16:03;10.07;;;4.23;;
15553;SDS011;7878;44.632;10.942;2022-11-23T05:18:29;7.63;;;3.50;;
15553;SDS011;7878;44.632;10.942;2022-11-23T05:20:54;5.07;;;3.43;;
15553;SDS011;7878;44.632;10.942;2022-11-23T05:23:20;7.33;;;3.77;;
15553;SDS011;7878;44.632;10.942;2022-11-23T05:25:45;5.00;;;3.17;;
15553;SDS011;7878;44.632;10.942;2022-11-23T05:28:18;9.40;;;3.57;;
15553;SDS011;7878;44.632;10.942;2022-11-23T05:30:44;4.90;;;3.20;;
15553;SDS011;7878;44.632;10.942;2022-11-23T05:33:10;4.37;;;3.07;;
15553;SDS011;7878;44.632;10.942;2022-11-23T05:35:36;6.90;;;3.53;;
15553;SDS011;7878;44.632;10.942;2022-11-23T05:38:02;6.33;;;4.70;;
15553;SDS011;7878;44.632;10.942;2022-11-23T05:40:28;14.20;;;3.40;;
15553;SDS011;7878;44.632;10.942;2022-11-23T05:42:57;6.57;;;3.27;;
15553;SDS011;7878;44.632;10.942;2022-11-23T05:45:24;4.60;;;3.83;;
15553;SDS011;7878;44.632;10.942;2022-11-23T05:47:50;6.37;;;3.67;;
15553;SDS011;7878;44.632;10.942;2022-11-23T05:50:17;5.17;;;2.97;;
15553;SDS011;7878;44.632;10.942;2022-11-23T05:52:43;4.10;;;3.67;;
15553;SDS011;7878;44.632;10.942;2022-11-23T05:55:09;5.13;;;3.80;;
15553;SDS011;7878;44.632;10.942;2022-11-23T05:57:35;12.03;;;4.80;;
15553;SDS011;7878;44.632;10.942;2022-11-23T06:00:01;5.33;;;4.40;;
15553;SDS011;7878;44.632;10.942;2022-11-23T06:02:27;6.27;;;4.70;;
15553;SDS011;7878;44.632;10.942;2022-11-23T06:04:53;7.33;;;5.27;;
15553;SDS011;7878;44.632;10.942;2022-11-23T06:07:19;7.23;;;4.70;;
15553;SDS011;7878;44.632;10.942;2022-11-23T06:09:44;5.00;;;4.10;;
15553;SDS011;7878;44.632;10.942;2022-11-23T06:12:10;7.33;;;4.50;;
15553;SDS011;7878;44.632;10.942;2022-11-23T06:14:35;5.97;;;5.10;;
15553;SDS011;7878;44.632;10.942;2022-11-23T06:17:01;7.07;;;4.73;;
15553;SDS011;7878;44.632;10.942;2022-11-23T06:19:27;9.57;;;4.80;;
15553;SDS011;7878;44.632;10.942;2022-11-23T06:21:54;6.10;;;5.43;;
15553;SDS011;7878;44.632;10.942;2022-11-23T06:24:21;6.63;;;5.47;;
15553;SDS011;7878;44.632;10.942;2022-11-23T06:26:52;5.07;;;4.57;;
15553;SDS011;7878;44.632;10.942;2022-11-23T06:29:18;8.17;;;5.10;;
15553;SDS011;7878;44.632;10.942;2022-11-23T06:31:44;7.17;;;5.07;;
15553;SDS011;7878;44.632;10.942;2022-11-23T06:34:10;6.47;;;5.70;;
15553;SDS011;7878;44.632;10.942;2022-11-23T06:36:36;7.80;;;6.63;;
15553;SDS011;7878;44.632;10.942;2022-11-23T06:39:02;7.83;;;6.60;;
15553;SDS011;7878;44.632;10.942;2022-11-23T06:41:28;9.67;;;6.10;;
15553;SDS011;7878;44.632;10.942;2022-11-23T06:43:54;7.50;;;6.40;;
15553;SDS011;7878;44.632;10.942;2022-11-23T06:46:19;7.77;;;6.53;;
15553;SDS011;7878;44.632;10.942;2022-11-23T06:48:45;7.77;;;5.90;;
15553;SDS011;7878;44.632;10.942;2022-11-23T06:51:12;7.50;;;6.37;;
15553;SDS011;7878;44.632;10.942;2022-11-23T06:53:38;9.47;;;7.00;;
15553;SDS011;7878;44.632;10.942;2022-11-23T06:56:04;7.73;;;6.87;;
15553;SDS011;7878;44.632;10.942;2022-11-23T06:58:29;9.77;;;7.70;;
15553;SDS011;7878;44.632;10.942;2022-11-23T07:01:02;7.53;;;6.30;;
15553;SDS011;7878;44.632;10.942;2022-11-23T07:03:29;8.33;;;5.87;;
15553;SDS011;7878;44.632;10.942;2022-11-23T07:05:55;9.33;;;6.27;;
15553;SDS011;7878;44.632;10.942;2022-11-23T07:08:21;9.47;;;6.67;;
15553;SDS011;7878;44.632;10.942;2022-11-23T07:10:47;9.47;;;6.80;;
15553;SDS011;7878;44.632;10.942;2022-11-23T07:13:13;9.57;;;7.20;;
15553;SDS011;7878;44.632;10.942;2022-11-23T07:15:39;7.87;;;5.87;;
15553;SDS011;7878;44.632;10.942;2022-11-23T07:18:06;9.07;;;6.77;;
15553;SDS011;7878;44.632;10.942;2022-11-23T07:20:33;7.63;;;6.43;;
15553;SDS011;7878;44.632;10.942;2022-11-23T07:22:59;8.03;;;5.50;;
15553;SDS011;7878;44.632;10.942;2022-11-23T07:25:29;7.83;;;5.97;;
15553;SDS011;7878;44.632;10.942;2022-11-23T07:27:56;10.50;;;5.73;;
15553;SDS011;7878;44.632;10.942;2022-11-23T07:30:23;6.30;;;4.83;;
15553;SDS011;7878;44.632;10.942;2022-11-23T07:32:50;6.50;;;5.10;;
15553;SDS011;7878;44.632;10.942;2022-11-23T07:35:16;6.00;;;4.20;;
15553;SDS011;7878;44.632;10.942;2022-11-23T07:37:42;9.13;;;3.87;;
15553;SDS011;7878;44.632;10.942;2022-11-23T07:40:09;4.27;;;3.60;;
15553;SDS011;7878;44.632;10.942;2022-11-23T07:42:35;7.57;;;4.10;;
15553;SDS011;7878;44.632;10.942;2022-11-23T07:45:00;6.20;;;4.00;;
15553;SDS011;7878;44.632;10.942;2022-11-23T07:47:27;6.00;;;3.73;;
15553;SDS011;7878;44.632;10.942;2022-11-23T07:49:53;6.67;;;3.83;;
15553;SDS011;7878;44.632;10.942;2022-11-23T07:52:18;5.83;;;4.53;;
15553;SDS011;7878;44.632;10.942;2022-11-23T07:54:44;7.43;;;3.93;;
15553;SDS011;7878;44.632;10.942;2022-11-23T07:57:10;6.00;;;4.60;;
15553;SDS011;7878;44.632;10.942;2022-11-23T07:59:35;16.07;;;4.70;;
15553;SDS011;7878;44.632;10.942;2022-11-23T08:02:01;5.73;;;4.93;;
15553;SDS011;7878;44.632;10.942;2022-11-23T08:04:27;6.63;;;4.90;;
15553;SDS011;7878;44.632;10.942;2022-11-23T08:06:54;10.53;;;4.97;;
15553;SDS011;7878;44.632;10.942;2022-11-23T08:09:20;7.40;;;4.93;;
15553;SDS011;7878;44.632;10.942;2022-11-23T08:11:45;7.93;;;5.23;;
15553;SDS011;7878;44.632;10.942;2022-11-23T08:14:11;10.27;;;5.40;;
15553;SDS011;7878;44.632;10.942;2022-11-23T08:16:37;8.67;;;4.90;;
15553;SDS011;7878;44.632;10.942;2022-11-23T08:19:02;12.37;;;5.63;;
15553;SDS011;7878;44.632;10.942;2022-11-23T08:21:28;6.63;;;4.80;;
15553;SDS011;7878;44.632;10.942;2022-11-23T08:23:54;7.73;;;5.20;;
15553;SDS011;7878;44.632;10.942;2022-11-23T08:26:19;8.20;;;5.00;;
15553;SDS011;7878;44.632;10.942;2022-11-23T08:28:45;11.00;;;4.93;;
15553;SDS011;7878;44.632;10.942;2022-11-23T08:31:11;10.77;;;4.10;;
15553;SDS011;7878;44.632;10.942;2022-11-23T08:33:38;6.87;;;4.17;;
15553;SDS011;7878;44.632;10.942;2022-11-23T08:36:04;8.53;;;5.10;;
15553;SDS011;7878;44.632;10.942;2022-11-23T08:38:31;9.83;;;4.73;;
15553;SDS011;7878;44.632;10.942;2022-11-23T08:41:01;10.23;;;4.93;;
15553;SDS011;7878;44.632;10.942;2022-11-23T08:43:27;7.53;;;5.23;;
15553;SDS011;7878;44.632;10.942;2022-11-23T08:45:57;7.97;;;4.97;;
15553;SDS011;7878;44.632;10.942;2022-11-23T08:48:23;7.30;;;4.30;;
15553;SDS011;7878;44.632;10.942;2022-11-23T08:50:49;6.63;;;4.83;;
15553;SDS011;7878;44.632;10.942;2022-11-23T08:53:15;8.97;;;5.53;;
15553;SDS011;7878;44.632;10.942;2022-11-23T08:55:41;9.23;;;4.73;;
15553;SDS011;7878;44.632;10.942;2022-11-23T08:58:07;6.33;;;4.10;;
15553;SDS011;7878;44.632;10.942;2022-11-23T09:00:33;7.70;;;3.90;;
15553;SDS011;7878;44.632;10.942;2022-11-23T09:02:59;3.63;;;3.07;;
15553;SDS011;7878;44.632;10.942;2022-11-23T09:05:26;7.67;;;5.90;;
15553;SDS011;7878;44.632;10.942;2022-11-23T09:07:53;18.33;;;14.27;;
15553;SDS011;7878;44.632;10.942;2022-11-23T09:10:19;5.80;;;3.70;;
15553;SDS011;7878;44.632;10.942;2022-11-23T09:12:45;7.00;;;4.37;;
15553;SDS011;7878;44.632;10.942;2022-11-23T09:15:12;7.43;;;5.13;;
15553;SDS011;7878;44.632;10.942;2022-11-23T09:17:38;5.80;;;4.33;;
15553;SDS011;7878;44.632;10.942;2022-11-23T09:20:04;6.87;;;4.67;;
15553;SDS011;7878;44.632;10.942;2022-11-23T09:22:30;9.17;;;5.00;;
15553;SDS011;7878;44.632;10.942;2022-11-23T09:24:56;9.10;;;5.07;;
15553;SDS011;7878;44.632;10.942;2022-11-23T09:27:21;7.10;;;4.13;;
15553;SDS011;7878;44.632;10.942;2022-11-23T09:29:47;9.93;;;3.70;;
15553;SDS011;7878;44.632;10.942;2022-11-23T09:32:13;5.93;;;3.30;;
15553;SDS011;7878;44.632;10.942;2022-11-23T09:34:38;10.07;;;3.53;;
15553;SDS011;7878;44.632;10.942;2022-11-23T09:37:04;14.90;;;3.97;;
15553;SDS011;7878;44.632;10.942;2022-11-23T09:39:30;7.73;;;3.50;;
15553;SDS011;7878;44.632;10.942;2022-11-23T09:50:30;8.70;;;3.20;;
15553;SDS011;7878;44.632;10.942;2022-11-23T09:52:57;3.72;;;2.78;;
15553;SDS011;7878;44.632;10.942;2022-11-23T09:55:34;5.35;;;3.10;;
15553;SDS011;7878;44.632;10.942;2022-11-23T09:58:11;6.90;;;2.80;;
15553;SDS011;7878;44.632;10.942;2022-11-23T10:00:52;9.82;;;2.80;;
15553;SDS011;7878;44.632;10.942;2022-11-23T10:03:32;9.43;;;3.00;;
15553;SDS011;7878;44.632;10.942;2022-11-23T10:06:11;6.57;;;3.00;;
15553;SDS011;7878;44.632;10.942;2022-11-23T10:22:58;31.55;;;28.02;;
15553;SDS011;7878;44.632;10.942;2022-11-23T10:25:27;10.52;;;6.95;;
15553;SDS011;7878;44.632;10.942;2022-11-23T10:28:00;20.10;;;10.27;;
15553;SDS011;7878;44.632;10.942;2022-11-23T10:30:31;7.13;;;4.50;;
15553;SDS011;7878;44.632;10.942;2022-11-23T10:33:00;49.58;;;32.35;;
15553;SDS011;7878;44.632;10.942;2022-11-23T10:35:47;73.57;;;47.38;;
15553;SDS011;7878;44.632;10.942;2022-11-23T10:38:16;46.55;;;32.38;;
15553;SDS011;7878;44.632;10.942;2022-11-23T10:51:57;7.80;;;5.85;;
15553;SDS011;7878;44.632;10.942;2022-11-23T11:00:14;10.07;;;6.28;;
15553;SDS011;7878;44.632;10.942;2022-11-23T11:02:48;6.95;;;6.28;;
15553;SDS011;7878;44.632;10.942;2022-11-23T11:07:56;8.13;;;3.42;;
15553;SDS011;7878;44.632;10.942;2022-11-23T11:10:34;6.15;;;2.60;;
15553;SDS011;7878;44.632;10.942;2022-11-23T11:13:02;6.45;;;3.95;;
15553;SDS011;7878;44.632;10.942;2022-11-23T11:15:28;4.70;;;4.28;;
15553;SDS011;7878;44.632;10.942;2022-11-23T11:17:54;6.03;;;5.43;;
15553;SDS011;7878;44.632;10.942;2022-11-23T11:22:56;8.32;;;6.05;;
15553;SDS011;7878;44.632;10.942;2022-11-23T11:25:42;13.32;;;7.30;;
15553;SDS011;7878;44.632;10.942;2022-11-23T11:31:54;7.25;;;2.80;;
15553;SDS011;7878;44.632;10.942;2022-11-23T11:36:40;4.45;;;2.25;;
15553;SDS011;7878;44.632;10.942;2022-11-23T11:39:17;5.82;;;2.97;;
15553;SDS011;7878;44.632;10.942;2022-11-23T11:41:48;4.07;;;2.67;;
15553;SDS011;7878;44.632;10.942;2022-11-23T11:44:23;17.17;;;14.73;;
15553;SDS011;7878;44.632;10.942;2022-11-23T11:46:59;2.95;;;2.75;;
15553;SDS011;7878;44.632;10.942;2022-11-23T11:49:39;6.85;;;3.20;;
15553;SDS011;7878;44.632;10.942;2022-11-23T11:52:10;6.15;;;2.60;;
15553;SDS011;7878;44.632;10.942;2022-11-23T11:57:39;2.40;;;2.20;;
15553;SDS011;7878;44.632;10.942;2022-11-23T12:00:12;2.47;;;2.28;;
15553;SDS011;7878;44.632;10.942;2022-11-23T12:05:48;2.80;;;2.40;;
15553;SDS011;7878;44.632;10.942;2022-11-23T12:10:54;4.60;;;2.40;;
15553;SDS011;7878;44.632;10.942;2022-11-23T12:13:27;6.13;;;3.40;;
15553;SDS011;7878;44.632;10.942;2022-11-23T12:16:42;5.35;;;3.58;;
15553;SDS011;7878;44.632;10.942;2022-11-23T12:24:22;8.50;;;3.75;;
15553;SDS011;7878;44.632;10.942;2022-11-23T12:49:11;8.60;;;3.67;;
15553;SDS011;7878;44.632;10.942;2022-11-23T12:57:03;5.00;;;3.80;;
15553;SDS011;7878;44.632;10.942;2022-11-23T13:00:11;5.10;;;3.83;;
15553;SDS011;7878;44.632;10.942;2022-11-23T13:19:15;2.53;;;2.30;;
15553;SDS011;7878;44.632;10.942;2022-11-23T13:21:59;5.72;;;4.43;;
15553;SDS011;7878;44.632;10.942;2022-11-23T13:34:58;3.55;;;3.00;;
15553;SDS011;7878;44.632;10.942;2022-11-23T13:37:24;5.90;;;2.90;;
15553;SDS011;7878;44.632;10.942;2022-11-23T13:42:15;5.32;;;3.72;;
15553;SDS011;7878;44.632;10.942;2022-11-23T13:44:42;4.88;;;3.22;;
15553;SDS011;7878;44.632;10.942;2022-11-23T13:49:38;5.18;;;4.25;;
15553;SDS011;7878;44.632;10.942;2022-11-23T13:54:58;5.00;;;3.63;;
15553;SDS011;7878;44.632;10.942;2022-11-23T13:57:33;7.20;;;3.65;;
15553;SDS011;7878;44.632;10.942;2022-11-23T14:03:43;11.55;;;8.55;;
15553;SDS011;7878;44.632;10.942;2022-11-23T14:06:49;4.95;;;4.05;;
15553;SDS011;7878;44.632;10.942;2022-11-23T14:09:23;6.95;;;4.05;;
15553;SDS011;7878;44.632;10.942;2022-11-23T14:11:57;8.27;;;4.45;;
15553;SDS011;7878;44.632;10.942;2022-11-23T14:23:06;8.00;;;4.70;;
15553;SDS011;7878;44.632;10.942;2022-11-23T14:33:35;12.30;;;4.60;;
15553;SDS011;7878;44.632;10.942;2022-11-23T14:38:55;7.07;;;3.90;;
15553;SDS011;7878;44.632;10.942;2022-11-23T14:41:37;8.13;;;4.55;;
15553;SDS011;7878;44.632;10.942;2022-11-23T14:44:07;7.00;;;4.40;;
15553;SDS011;7878;44.632;10.942;2022-11-23T14:46:37;9.03;;;4.97;;
15553;SDS011;7878;44.632;10.942;2022-11-23T14:49:23;11.03;;;4.93;;
15553;SDS011;7878;44.632;10.942;2022-11-23T14:51:48;12.77;;;4.90;;
15553;SDS011;7878;44.632;10.942;2022-11-23T14:54:14;7.10;;;4.70;;
15553;SDS011;7878;44.632;10.942;2022-11-23T14:56:41;7.63;;;4.23;;
15553;SDS011;7878;44.632;10.942;2022-11-23T15:01:46;8.80;;;4.47;;
15553;SDS011;7878;44.632;10.942;2022-11-23T15:04:22;11.93;;;4.70;;
15553;SDS011;7878;44.632;10.942;2022-11-23T15:12:23;8.90;;;4.83;;
15553;SDS011;7878;44.632;10.942;2022-11-23T15:14:51;7.77;;;5.03;;
15553;SDS011;7878;44.632;10.942;2022-11-23T15:17:20;7.63;;;5.07;;
15553;SDS011;7878;44.632;10.942;2022-11-23T15:20:19;17.10;;;6.57;;
15553;SDS011;7878;44.632;10.942;2022-11-23T15:22:39;10.40;;;5.60;;
15553;SDS011;7878;44.632;10.942;2022-11-23T15:25:10;6.67;;;5.07;;
15553;SDS011;7878;44.632;10.942;2022-11-23T15:27:40;10.33;;;5.10;;
15553;SDS011;7878;44.632;10.942;2022-11-23T15:32:58;15.57;;;6.13;;
15553;SDS011;7878;44.632;10.942;2022-11-23T15:35:29;23.43;;;6.33;;
15553;SDS011;7878;44.632;10.942;2022-11-23T15:38:00;23.87;;;7.83;;
15553;SDS011;7878;44.632;10.942;2022-11-23T15:40:29;16.30;;;7.73;;
15553;SDS011;7878;44.632;10.942;2022-11-23T15:42:57;19.43;;;7.47;;
15553;SDS011;7878;44.632;10.942;2022-11-23T15:45:33;29.93;;;9.57;;
15553;SDS011;7878;44.632;10.942;2022-11-23T15:50:45;18.60;;;8.50;;
15553;SDS011;7878;44.632;10.942;2022-11-23T15:53:16;14.80;;;6.87;;
15553;SDS011;7878;44.632;10.942;2022-11-23T15:55:44;23.17;;;8.30;;
15553;SDS011;7878;44.632;10.942;2022-11-23T15:58:12;28.37;;;7.93;;
15553;SDS011;7878;44.632;10.942;2022-11-23T16:00:50;26.97;;;7.87;;
15553;SDS011;7878;44.632;10.942;2022-11-23T16:03:29;28.70;;;9.53;;
15553;SDS011;7878;44.632;10.942;2022-11-23T16:06:47;32.23;;;8.30;;
15553;SDS011;7878;44.632;10.942;2022-11-23T16:08:56;28.63;;;8.70;;
15553;SDS011;7878;44.632;10.942;2022-11-23T16:11:27;33.10;;;12.10;;
15553;SDS011;7878;44.632;10.942;2022-11-23T16:17:13;20.90;;;9.27;;
15553;SDS011;7878;44.632;10.942;2022-11-23T16:19:52;22.27;;;8.53;;
15553;SDS011;7878;44.632;10.942;2022-11-23T16:22:33;21.97;;;9.13;;
15553;SDS011;7878;44.632;10.942;2022-11-23T16:25:04;17.13;;;8.33;;
15553;SDS011;7878;44.632;10.942;2022-11-23T16:28:13;16.77;;;8.43;;
15553;SDS011;7878;44.632;10.942;2022-11-23T16:30:42;23.20;;;8.77;;
15553;SDS011;7878;44.632;10.942;2022-11-23T16:33:13;23.77;;;10.37;;
15553;SDS011;7878;44.632;10.942;2022-11-23T16:35:41;13.97;;;8.77;;
15553;SDS011;7878;44.632;10.942;2022-11-23T16:38:07;69.27;;;39.90;;
15553;SDS011;7878;44.632;10.942;2022-11-23T16:40:32;28.07;;;9.07;;
15553;SDS011;7878;44.632;10.942;2022-11-23T16:42:58;33.07;;;15.20;;
15553;SDS011;7878;44.632;10.942;2022-11-23T16:45:24;19.67;;;8.10;;
15553;SDS011;7878;44.632;10.942;2022-11-23T16:47:54;21.03;;;8.70;;
15553;SDS011;7878;44.632;10.942;2022-11-23T16:50:25;30.70;;;10.27;;
15553;SDS011;7878;44.632;10.942;2022-11-23T16:52:52;26.90;;;12.90;;
15553;SDS011;7878;44.632;10.942;2022-11-23T16:55:18;31.57;;;10.23;;
15553;SDS011;7878;44.632;10.942;2022-11-23T16:57:44;31.33;;;10.53;;
15553;SDS011;7878;44.632;10.942;2022-11-23T17:00:14;29.00;;;10.80;;
15553;SDS011;7878;44.632;10.942;2022-11-23T17:02:42;29.00;;;11.43;;
15553;SDS011;7878;44.632;10.942;2022-11-23T17:05:15;28.30;;;9.87;;
15553;SDS011;7878;44.632;10.942;2022-11-23T17:07:42;47.37;;;24.90;;
15553;SDS011;7878;44.632;10.942;2022-11-23T17:10:08;48.80;;;25.83;;
15553;SDS011;7878;44.632;10.942;2022-11-23T17:12:35;40.67;;;23.90;;
15553;SDS011;7878;44.632;10.942;2022-11-23T17:15:02;33.77;;;17.80;;
15553;SDS011;7878;44.632;10.942;2022-11-23T17:17:29;36.87;;;17.07;;
15553;SDS011;7878;44.632;10.942;2022-11-23T17:19:55;35.30;;;15.13;;
15553;SDS011;7878;44.632;10.942;2022-11-23T17:22:21;39.53;;;15.50;;
15553;SDS011;7878;44.632;10.942;2022-11-23T17:24:47;37.87;;;14.93;;
15553;SDS011;7878;44.632;10.942;2022-11-23T17:27:19;35.67;;;14.27;;
15553;SDS011;7878;44.632;10.942;2022-11-23T17:29:54;34.97;;;14.93;;
15553;SDS011;7878;44.632;10.942;2022-11-23T17:32:25;26.83;;;14.60;;
15553;SDS011;7878;44.632;10.942;2022-11-23T17:34:50;24.70;;;14.97;;
15553;SDS011;7878;44.632;10.942;2022-11-23T17:37:17;23.73;;;12.83;;
15553;SDS011;7878;44.632;10.942;2022-11-23T17:39:44;18.73;;;11.87;;
15553;SDS011;7878;44.632;10.942;2022-11-23T17:42:11;23.20;;;12.80;;
15553;SDS011;7878;44.632;10.942;2022-11-23T17:44:37;23.87;;;12.13;;
15553;SDS011;7878;44.632;10.942;2022-11-23T17:47:03;25.07;;;11.77;;
15553;SDS011;7878;44.632;10.942;2022-11-23T17:49:29;17.70;;;10.90;;